Time;durP1;ratioP1;P1;durP2;ratioP2;P2;SDS_P1;SDS_P2;PMS_P1;PMS_P2;Temp;Humidity;BMP_temperature;BMP_pressure;BME280_temperature;BME280_humidity;BME280_pressure;Samples;Min_cycle;Max_cycle;Signal;HPM_P1;HPM_P2
2023/05/20 00:01:00;;;;;;;7.53;4.40;;;;;;;11.59;71.18;95732.66;6200012;23;20181;-83
2023/05/20 00:03:25;;;;;;;4.77;3.93;;;;;;;11.57;71.28;95733.75;6200547;23;20215;-84
2023/05/20 00:05:50;;;;;;;6.03;3.80;;;;;;;11.56;71.66;95734.72;6224625;23;20176;-84
2023/05/20 00:08:17;;;;;;;5.63;4.00;;;;;;;11.58;72.02;95733.63;6199874;23;20161;-83
2023/05/20 00:10:43;;;;;;;6.67;3.73;;;;;;;11.53;72.27;95735.03;6199786;23;20635;-83
2023/05/20 00:13:08;;;;;;;5.20;4.37;;;;;;;11.47;72.81;95733.84;6200171;23;20177;-83
2023/05/20 00:15:34;;;;;;;6.47;4.03;;;;;;;11.55;73.00;95725.28;6199764;23;20197;-85
2023/05/20 00:18:00;;;;;;;6.63;3.83;;;;;;;11.65;72.41;95718.22;6225244;23;20186;-83
2023/05/20 00:20:25;;;;;;;7.00;4.53;;;;;;;11.66;72.42;95722.47;6200118;23;20197;-84
2023/05/20 00:22:51;;;;;;;8.07;4.27;;;;;;;11.54;72.49;95724.47;6200779;23;20532;-84
2023/05/20 00:25:16;;;;;;;7.20;4.20;;;;;;;11.70;71.93;95718.59;6199621;23;20157;-84
2023/05/20 00:27:41;;;;;;;4.07;3.67;;;;;;;11.63;72.19;95720.97;6199684;23;20681;-85
2023/05/20 00:30:07;;;;;;;8.07;4.70;;;;;;;11.54;73.00;95718.47;6199621;23;20152;-84
2023/05/20 00:32:33;;;;;;;5.67;4.03;;;;;;;11.48;73.01;95716.44;6200039;23;20244;-84
2023/05/20 00:34:59;;;;;;;8.27;4.10;;;;;;;11.37;73.42;95722.69;6201184;23;20160;-84
2023/05/20 00:37:24;;;;;;;13.53;4.90;;;;;;;11.33;74.16;95729.16;6200899;23;20184;-84
2023/05/20 00:39:50;;;;;;;6.53;4.80;;;;;;;11.28;74.97;95720.97;6225311;23;20162;-84
2023/05/20 00:42:20;;;;;;;4.77;4.37;;;;;;;11.32;74.60;95730.13;6224879;23;20169;-85
2023/05/20 00:44:45;;;;;;;5.40;4.50;;;;;;;11.31;74.98;95718.09;6224467;23;20199;-84
2023/05/20 00:47:13;;;;;;;5.00;4.47;;;;;;;11.28;75.26;95726.19;6198368;23;20232;-83
2023/05/20 00:49:38;;;;;;;5.47;4.67;;;;;;;11.16;76.35;95724.75;6198817;23;20196;-84
2023/05/20 00:52:04;;;;;;;5.83;4.27;;;;;;;11.25;76.05;95723.88;6198876;23;20810;-82
2023/05/20 00:54:30;;;;;;;6.30;4.90;;;;;;;11.20;76.44;95720.88;6198716;23;20161;-84
2023/05/20 00:56:56;;;;;;;6.70;4.23;;;;;;;11.32;76.14;95714.53;6198092;23;20651;-84
2023/05/20 00:59:21;;;;;;;5.40;4.67;;;;;;;11.31;75.84;95723.31;6223863;23;20595;-82
2023/05/20 01:01:47;;;;;;;6.30;4.37;;;;;;;11.24;76.34;95715.25;6225181;23;20180;-83
2023/05/20 01:04:12;;;;;;;7.63;4.33;;;;;;;11.16;77.49;95714.38;6224481;23;20176;-85
2023/05/20 01:06:37;;;;;;;5.37;4.43;;;;;;;11.20;77.25;95715.69;6223668;23;20149;-82
2023/05/20 01:09:03;;;;;;;5.47;4.63;;;;;;;11.34;77.03;95717.78;6199272;23;20265;-84
2023/05/20 01:11:33;;;;;;;10.17;4.80;;;;;;;11.30;77.57;95708.63;6198821;23;20177;-84
2023/05/20 01:14:02;;;;;;;5.30;4.40;;;;;;;11.32;77.65;95717.94;6199973;23;20587;-84
2023/05/20 01:16:29;;;;;;;6.60;4.67;;;;;;;11.38;77.56;95708.72;6198238;23;20624;-83
2023/05/20 01:18:56;;;;;;;5.53;4.40;;;;;;;11.32;78.14;95712.75;6199229;23;20495;-84
2023/05/20 01:21:22;;;;;;;5.50;4.53;;;;;;;11.47;77.64;95709.59;6223518;23;20181;-84
2023/05/20 01:23:47;;;;;;;5.97;4.53;;;;;;;11.38;77.91;95707.91;6225328;23;20213;-84
2023/05/20 01:26:13;;;;;;;7.47;4.50;;;;;;;11.40;78.16;95706.81;6199512;23;20157;-83
2023/05/20 01:28:39;;;;;;;6.30;4.40;;;;;;;11.46;78.02;95707.97;6223591;23;20157;-84
2023/05/20 01:31:06;;;;;;;6.00;4.60;;;;;;;11.55;77.45;95702.69;6197951;23;20264;-83
2023/05/20 01:33:35;;;;;;;5.43;4.40;;;;;;;11.57;77.27;95703.38;6197839;23;20162;-83
2023/05/20 01:36:00;;;;;;;5.27;4.70;;;;;;;11.61;77.39;95702.09;6196738;23;20180;-82
2023/05/20 01:38:26;;;;;;;5.00;4.50;;;;;;;11.49;77.84;95700.72;6223067;23;20236;-83
2023/05/20 01:40:52;;;;;;;5.70;5.07;;;;;;;11.53;77.54;95702.03;6198845;23;20255;-85
2023/05/20 01:43:17;;;;;;;7.37;4.20;;;;;;;11.54;77.82;95703.66;6223827;23;20161;-84
2023/05/20 01:45:43;;;;;;;5.17;4.67;;;;;;;11.49;78.36;95703.31;6199467;23;20214;-83
2023/05/20 01:48:12;;;;;;;7.60;4.80;;;;;;;11.46;78.04;95705.38;6199491;23;20157;-83
2023/05/20 01:50:38;;;;;;;4.97;4.47;;;;;;;11.47;78.29;95694.81;6225463;23;20627;-84
2023/05/20 01:53:03;;;;;;;5.93;4.43;;;;;;;11.31;79.18;95699.91;6225803;23;20160;-84
2023/05/20 01:55:28;;;;;;;4.77;4.23;;;;;;;11.54;78.52;95698.47;6200111;23;20215;-83
2023/05/20 01:57:54;;;;;;;6.03;4.47;;;;;;;11.57;78.29;95692.97;6199421;23;20248;-85
2023/05/20 02:00:19;;;;;;;5.87;4.30;;;;;;;11.56;78.20;95696.53;6200370;23;20211;-85
2023/05/20 02:02:45;;;;;;;4.67;4.27;;;;;;;11.50;78.17;95693.72;6199854;23;20153;-84
2023/05/20 02:05:10;;;;;;;5.43;4.73;;;;;;;11.42;78.95;95696.25;6201472;23;20172;-85
2023/05/20 02:07:35;;;;;;;4.60;4.17;;;;;;;11.42;78.78;95701.47;6200160;23;20523;-84
2023/05/20 02:10:01;;;;;;;7.47;4.43;;;;;;;11.34;79.43;95702.19;6200997;23;20161;-84
2023/05/20 02:12:26;;;;;;;6.47;4.43;;;;;;;11.51;78.38;95696.19;6253000;23;20177;-85
2023/05/20 02:14:51;;;;;;;6.83;4.30;;;;;;;11.23;80.14;95692.84;6200829;23;20158;-85
2023/05/20 02:17:17;;;;;;;7.07;4.47;;;;;;;11.40;79.34;95683.41;6199345;23;20530;-84
2023/05/20 02:19:43;;;;;;;6.07;4.77;;;;;;;11.39;79.56;95692.16;6200123;23;20157;-85
2023/05/20 02:22:08;;;;;;;8.47;5.00;;;;;;;11.29;80.30;95679.22;6199885;23;20192;-85
2023/05/20 02:24:34;;;;;;;6.20;4.60;;;;;;;11.31;80.45;95684.31;6225664;23;20159;-85
2023/05/20 02:27:00;;;;;;;6.67;5.00;;;;;;;11.42;79.81;95673.66;6225262;23;20176;-85
2023/05/20 02:29:25;;;;;;;6.83;4.53;;;;;;;11.32;80.47;95670.34;6225996;23;20489;-85
2023/05/20 02:31:51;;;;;;;6.23;4.83;;;;;;;11.29;80.98;95668.00;6224509;23;20169;-85
2023/05/20 02:34:17;;;;;;;5.20;4.60;;;;;;;11.26;81.61;95670.91;6225509;23;20821;-84
2023/05/20 02:36:42;;;;;;;6.13;4.53;;;;;;;11.27;81.15;95673.38;6224635;23;20204;-84
2023/05/20 02:39:08;;;;;;;6.07;5.47;;;;;;;11.27;81.23;95670.75;6224233;23;20134;-84
2023/05/20 02:41:33;;;;;;;5.47;4.97;;;;;;;11.24;81.36;95675.47;6200290;23;20639;-85
2023/05/20 02:43:58;;;;;;;5.00;4.50;;;;;;;11.25;81.55;95677.09;6200814;23;20212;-84
2023/05/20 02:46:24;;;;;;;5.77;5.00;;;;;;;11.26;81.25;95674.34;6250873;23;20145;-84
2023/05/20 02:48:49;;;;;;;6.63;4.80;;;;;;;11.21;82.04;95666.16;6199360;23;20169;-84
2023/05/20 02:51:14;;;;;;;5.17;4.60;;;;;;;11.39;81.37;95660.94;6199360;23;20239;-84
2023/05/20 02:53:40;;;;;;;7.10;4.83;;;;;;;11.31;82.03;95666.09;6224829;23;20645;-84
2023/05/20 02:56:07;;;;;;;6.37;4.93;;;;;;;11.31;81.63;95659.13;6224183;23;20192;-84
2023/05/20 02:58:34;;;;;;;5.20;4.70;;;;;;;11.28;82.40;95661.19;6224649;23;20218;-84
2023/05/20 03:01:00;;;;;;;6.73;5.43;;;;;;;11.40;81.69;95660.00;6250491;23;20201;-85
2023/05/20 03:03:26;;;;;;;6.87;4.97;;;;;;;11.45;81.17;95668.16;6200031;23;20183;-84
2023/05/20 03:05:51;;;;;;;6.63;5.10;;;;;;;11.34;81.86;95666.59;6198889;23;20633;-84
2023/05/20 03:08:19;;;;;;;5.30;4.83;;;;;;;11.28;82.81;95666.38;6224259;23;20176;-84
2023/05/20 03:10:44;;;;;;;6.50;5.50;;;;;;;11.22;83.24;95666.97;6200793;23;20231;-84
2023/05/20 03:13:10;;;;;;;5.70;5.10;;;;;;;11.47;81.94;95662.81;6225016;23;20157;-85
2023/05/20 03:15:36;;;;;;;6.03;4.80;;;;;;;11.35;82.74;95659.63;6199419;23;20236;-84
2023/05/20 03:18:02;;;;;;;6.40;4.97;;;;;;;11.25;83.24;95656.28;6198508;23;20192;-85
2023/05/20 03:20:31;;;;;;;6.30;5.20;;;;;;;11.41;82.13;95664.22;6199582;23;20200;-84
2023/05/20 03:22:56;;;;;;;6.60;5.03;;;;;;;11.34;82.94;95656.22;6225349;23;20163;-82
2023/05/20 03:25:23;;;;;;;6.90;5.30;;;;;;;11.45;81.89;95660.34;6224406;23;20180;-85
2023/05/20 03:27:48;;;;;;;5.60;5.10;;;;;;;11.46;81.98;95664.59;6197760;23;20607;-83
2023/05/20 03:30:14;;;;;;;5.93;4.77;;;;;;;11.49;81.84;95659.09;6198860;23;20168;-84
2023/05/20 03:32:39;;;;;;;5.97;5.00;;;;;;;11.30;83.35;95659.25;6198944;23;20556;-84
2023/05/20 03:35:06;;;;;;;5.93;5.40;;;;;;;11.43;82.81;95661.47;6224122;23;20168;-84
2023/05/20 03:37:31;;;;;;;7.37;5.03;;;;;;;11.49;82.39;95659.09;6198046;23;20230;-84
2023/05/20 03:39:56;;;;;;;5.73;4.97;;;;;;;11.52;81.73;95668.38;6199130;23;20185;-84
2023/05/20 03:42:22;;;;;;;5.80;5.20;;;;;;;11.43;82.69;95662.28;6197853;23;20532;-84
2023/05/20 03:44:47;;;;;;;6.13;5.40;;;;;;;11.39;82.84;95666.16;6223914;23;20476;-84
2023/05/20 03:47:12;;;;;;;6.10;4.73;;;;;;;11.48;82.34;95673.06;6250830;23;20153;-83
2023/05/20 03:49:39;;;;;;;5.70;5.10;;;;;;;11.49;82.78;95666.91;6199271;23;20790;-82
2023/05/20 03:52:05;;;;;;;6.63;5.67;;;;;;;11.34;83.76;95671.00;6224273;23;20219;-84
2023/05/20 03:54:31;;;;;;;7.13;5.57;;;;;;;11.41;83.84;95671.22;6223800;23;20606;-85
2023/05/20 03:56:56;;;;;;;6.63;5.30;;;;;;;11.41;83.67;95668.63;6222189;23;20208;-83
2023/05/20 03:59:21;;;;;;;6.07;5.20;;;;;;;11.42;83.69;95671.06;6198477;23;20161;-85
2023/05/20 04:01:47;;;;;;;6.90;5.10;;;;;;;11.52;82.92;95676.19;6224751;23;20173;-84
2023/05/20 04:04:12;;;;;;;6.33;5.70;;;;;;;11.44;83.57;95668.31;6224429;23;20149;-84
2023/05/20 04:06:39;;;;;;;6.80;5.40;;;;;;;11.44;83.37;95665.72;6197799;23;20184;-82
2023/05/20 04:09:04;;;;;;;6.10;5.47;;;;;;;11.42;83.80;95668.47;6199456;23;20168;-85
2023/05/20 04:11:30;;;;;;;6.63;5.30;;;;;;;11.52;83.29;95666.59;6224441;23;20173;-83
2023/05/20 04:13:55;;;;;;;10.33;5.20;;;;;;;11.67;82.61;95674.69;6223575;23;20244;-83
2023/05/20 04:16:20;;;;;;;8.00;5.70;;;;;;;11.58;83.04;95676.41;6222618;23;20173;-84
2023/05/20 04:18:47;;;;;;;6.27;5.10;;;;;;;11.70;82.92;95669.16;6223548;23;20153;-84
2023/05/20 04:21:12;;;;;;;7.80;5.50;;;;;;;11.77;81.96;95674.59;6223599;23;20639;-83
2023/05/20 04:23:37;;;;;;;5.30;4.57;;;;;;;11.93;81.10;95661.72;6224019;23;20168;-83
2023/05/20 04:26:03;;;;;;;6.23;4.87;;;;;;;11.88;81.83;95661.34;6197389;23;20153;-84
2023/05/20 04:28:30;;;;;;;6.27;5.27;;;;;;;12.36;79.89;95662.59;6197707;23;20164;-85
2023/05/20 04:30:59;;;;;;;7.47;4.93;;;;;;;12.57;77.90;95670.03;6223134;23;20172;-85
2023/05/20 04:33:26;;;;;;;5.80;4.43;;;;;;;13.27;75.43;95666.19;6223438;23;20153;-85
2023/05/20 04:35:51;;;;;;;5.83;5.13;;;;;;;13.81;72.11;95663.91;6197406;23;20185;-85
2023/05/20 04:38:16;;;;;;;5.73;4.63;;;;;;;14.76;67.82;95663.22;6198189;23;20168;-83
2023/05/20 04:40:42;;;;;;;4.63;4.13;;;;;;;15.65;62.96;95661.88;6197597;23;20181;-85
2023/05/20 04:43:08;;;;;;;8.73;4.30;;;;;;;17.37;56.81;95657.13;6197829;23;20187;-85
2023/05/20 04:45:34;;;;;;;4.47;4.07;;;;;;;18.56;52.65;95665.97;6223465;23;20525;-84
2023/05/20 04:47:59;;;;;;;4.05;3.65;;;;;;;18.43;51.86;95662.44;6222877;23;20153;-85
2023/05/20 04:50:25;;;;;;;5.50;3.95;;;;;;;19.35;49.19;95652.34;6197937;23;20235;-85
2023/05/20 04:52:50;;;;;;;4.30;3.90;;;;;;;19.88;47.31;95649.81;6222922;23;20650;-85
2023/05/20 04:55:15;;;;;;;4.97;3.47;;;;;;;20.44;46.25;95659.91;6223099;23;20149;-85
2023/05/20 04:57:41;;;;;;;5.13;3.85;;;;;;;20.40;45.17;95653.38;6222611;23;20181;-84
2023/05/20 05:00:11;;;;;;;5.40;3.50;;;;;;;20.46;43.75;95657.88;6231763;22;20153;-83
2023/05/20 05:02:36;;;;;;;6.78;3.95;;;;;;;18.46;50.21;95662.06;6263607;22;20188;-83
2023/05/20 05:05:02;;;;;;;6.78;4.85;;;;;;;17.63;52.31;95656.56;6246220;22;20145;-83
2023/05/20 05:07:27;;;;;;;4.43;4.00;;;;;;;17.40;52.78;95663.81;6243810;23;20164;-83
2023/05/20 05:09:52;;;;;;;4.40;3.53;;;;;;;16.65;54.97;95664.94;6230682;23;20153;-85
2023/05/20 05:12:18;;;;;;;5.03;4.53;;;;;;;15.13;62.11;95663.34;6199027;23;20173;-84
2023/05/20 05:14:43;;;;;;;5.63;4.07;;;;;;;14.89;64.00;95661.66;6199878;23;20157;-85
2023/05/20 05:17:08;;;;;;;6.00;4.68;;;;;;;14.19;66.65;95661.56;6221321;23;20503;-83
2023/05/20 05:19:34;;;;;;;5.38;4.40;;;;;;;13.78;68.89;95647.75;6197627;23;20198;-85
2023/05/20 05:21:59;;;;;;;5.78;4.80;;;;;;;13.42;71.29;95649.88;6247455;23;20192;-84
2023/05/20 05:24:24;;;;;;;5.63;4.80;;;;;;;13.27;73.31;95642.72;6220920;23;20175;-85
2023/05/20 05:26:53;;;;;;;6.60;5.23;;;;;;;13.11;73.84;95629.63;6194959;23;20164;-85
2023/05/20 05:29:19;;;;;;;6.03;4.77;;;;;;;13.08;74.47;95632.56;6196073;23;20165;-83
2023/05/20 05:31:47;;;;;;;8.10;5.43;;;;;;;13.12;74.58;95627.81;6195160;23;20561;-83
2023/05/20 05:34:12;;;;;;;5.93;4.87;;;;;;;13.19;74.28;95624.44;6195613;23;20247;-83
2023/05/20 05:36:39;;;;;;;6.40;5.57;;;;;;;13.24;74.34;95629.97;6246875;23;20223;-85
2023/05/20 05:39:05;;;;;;;5.13;4.63;;;;;;;13.22;74.64;95629.31;6220161;23;20156;-83
2023/05/20 05:41:30;;;;;;;7.07;5.17;;;;;;;13.58;72.87;95636.84;6195501;23;20177;-84
2023/05/20 05:43:57;;;;;;;5.33;4.90;;;;;;;13.55;73.39;95629.34;6195166;23;20161;-84
2023/05/20 05:46:23;;;;;;;6.47;5.37;;;;;;;13.43;73.74;95630.63;6221912;23;20630;-85
2023/05/20 05:48:49;;;;;;;6.23;5.37;;;;;;;13.74;72.82;95623.78;6199182;23;20157;-86
2023/05/20 05:51:15;;;;;;;6.87;5.30;;;;;;;13.60;73.90;95627.88;6200992;23;20184;-84
2023/05/20 05:53:40;;;;;;;8.67;5.80;;;;;;;13.46;73.89;95636.34;6201711;23;20161;-85
2023/05/20 05:56:06;;;;;;;7.30;5.30;;;;;;;13.67;73.57;95638.47;6200522;23;20181;-83
2023/05/20 05:58:31;;;;;;;5.90;5.30;;;;;;;13.58;73.93;95644.66;6225435;23;20179;-85
2023/05/20 06:00:57;;;;;;;6.20;5.60;;;;;;;13.48;74.39;95634.41;6225748;23;20246;-85
2023/05/20 06:03:22;;;;;;;7.83;5.60;;;;;;;13.30;75.37;95639.78;6200975;23;20473;-85
2023/05/20 06:05:48;;;;;;;7.20;5.73;;;;;;;13.39;75.71;95637.97;6221631;23;20187;-84
2023/05/20 06:08:13;;;;;;;9.83;6.23;;;;;;;13.20;76.04;95631.28;6221503;23;20153;-85
2023/05/20 06:10:38;;;;;;;10.47;5.93;;;;;;;13.82;74.05;95631.59;6222544;23;20177;-86
2023/05/20 06:13:04;;;;;;;6.97;6.17;;;;;;;14.03;73.30;95632.88;6222029;23;20153;-84
2023/05/20 06:15:29;;;;;;;6.50;5.47;;;;;;;13.96;72.54;95626.66;6196676;23;20161;-83
2023/05/20 06:17:54;;;;;;;7.17;6.03;;;;;;;13.66;73.83;95629.00;6222912;23;20599;-83
2023/05/20 06:20:20;;;;;;;6.57;5.87;;;;;;;13.49;74.54;95630.00;6199938;23;20595;-85
2023/05/20 06:22:45;;;;;;;7.70;5.77;;;;;;;13.39;75.74;95626.75;6224978;23;20224;-84
2023/05/20 06:25:11;;;;;;;6.63;5.93;;;;;;;13.95;73.84;95625.03;6224313;23;20173;-82
2023/05/20 06:27:36;;;;;;;6.43;5.83;;;;;;;13.55;75.08;95637.19;6224480;23;20230;-84
2023/05/20 06:30:01;;;;;;;7.63;5.87;;;;;;;13.79;74.74;95637.16;6251295;23;20149;-84
2023/05/20 06:32:27;;;;;;;7.70;6.10;;;;;;;13.78;73.78;95632.94;6223006;23;20181;-84
2023/05/20 06:34:52;;;;;;;7.50;6.03;;;;;;;14.05;73.42;95625.69;6249752;23;20156;-84
2023/05/20 06:37:17;;;;;;;6.70;6.00;;;;;;;13.95;73.93;95622.44;6221861;23;20189;-83
2023/05/20 06:39:45;;;;;;;6.23;5.60;;;;;;;14.34;72.39;95620.72;6197509;23;20157;-82
2023/05/20 06:42:10;;;;;;;6.23;5.63;;;;;;;14.55;71.48;95612.31;6222823;23;20177;-82
2023/05/20 06:44:36;;;;;;;8.30;6.40;;;;;;;14.80;70.58;95605.16;6197765;23;20157;-84
2023/05/20 06:47:01;;;;;;;7.07;6.20;;;;;;;14.68;71.28;95611.78;6222211;23;20220;-83
2023/05/20 06:49:27;;;;;;;6.83;5.97;;;;;;;14.69;70.46;95613.41;6198178;23;20249;-84
2023/05/20 06:51:52;;;;;;;7.47;6.17;;;;;;;14.81;70.23;95613.81;6223528;23;20173;-84
2023/05/20 06:54:18;;;;;;;8.33;6.47;;;;;;;14.60;71.25;95612.63;6197705;23;20171;-84
2023/05/20 06:56:53;;;;;;;6.60;5.80;;;;;;;14.59;70.81;95615.44;6196265;23;20190;-81
2023/05/20 06:59:27;;;;;;;7.03;6.30;;;;;;;15.23;69.40;95610.78;6182621;23;20167;-85
2023/05/20 07:01:53;;;;;;;5.90;5.30;;;;;;;15.34;67.95;95610.38;6196248;23;20238;-83
2023/05/20 07:04:18;;;;;;;6.43;5.83;;;;;;;16.53;63.59;95608.75;6196772;23;20469;-79
2023/05/20 07:06:43;;;;;;;8.03;5.50;;;;;;;16.25;64.10;95605.94;6245538;23;20150;-77
2023/05/20 07:09:09;;;;;;;7.40;5.50;;;;;;;16.77;62.20;95610.25;6194585;23;20167;-79
2023/05/20 07:11:34;;;;;;;6.07;4.87;;;;;;;17.41;60.50;95611.16;6219742;23;20192;-78
2023/05/20 07:13:59;;;;;;;5.93;5.33;;;;;;;17.85;58.51;95615.38;6219231;23;20165;-77
2023/05/20 07:16:25;;;;;;;8.60;5.87;;;;;;;17.85;59.11;95604.88;6193381;23;20264;-78
2023/05/20 07:18:50;;;;;;;7.18;5.60;;;;;;;18.18;57.45;95605.06;6245876;23;20500;-78
2023/05/20 07:21:15;;;;;;;6.65;5.80;;;;;;;18.09;56.97;95595.72;6218183;23;20181;-79
2023/05/20 07:23:41;;;;;;;6.78;5.70;;;;;;;17.22;59.61;95596.81;6189135;23;20307;-78
2023/05/20 07:26:06;;;;;;;8.43;6.32;;;;;;;16.83;60.59;95593.78;6188914;23;20217;-77
2023/05/20 07:28:31;;;;;;;8.70;6.75;;;;;;;15.79;64.64;95595.63;6216445;23;20241;-77
2023/05/20 07:30:59;;;;;;;8.37;6.77;;;;;;;16.20;63.65;95595.22;6193621;23;20215;-78
2023/05/20 07:33:24;;;;;;;9.80;6.60;;;;;;;16.30;64.41;95590.50;6194951;23;20157;-77
2023/05/20 07:35:49;;;;;;;8.30;7.35;;;;;;;16.06;64.07;95581.91;6218070;23;20191;-78
2023/05/20 07:38:15;;;;;;;9.70;6.60;;;;;;;15.69;65.88;95585.41;6218266;23;20487;-78
2023/05/20 07:40:40;;;;;;;7.37;6.67;;;;;;;16.23;65.02;95587.78;6193578;23;20234;-78
2023/05/20 07:43:07;;;;;;;7.90;6.77;;;;;;;16.35;64.24;95580.31;6218332;23;20544;-78
2023/05/20 07:45:34;;;;;;;7.10;6.37;;;;;;;16.39;64.65;95592.03;6218687;23;20165;-78
2023/05/20 07:48:00;;;;;;;7.35;6.18;;;;;;;16.78;63.12;95586.47;6217083;23;20161;-77
2023/05/20 07:50:25;;;;;;;7.75;6.75;;;;;;;16.74;63.26;95582.59;6218204;23;20189;-79
2023/05/20 07:52:50;;;;;;;8.23;6.83;;;;;;;16.63;63.42;95578.63;6217812;23;20157;-77
2023/05/20 07:55:17;;;;;;;8.30;7.50;;;;;;;16.19;63.52;95580.47;6219590;23;20165;-80
2023/05/20 07:57:42;;;;;;;10.23;7.18;;;;;;;15.82;65.85;95580.38;6222156;23;20177;-80
2023/05/20 08:00:08;;;;;;;8.20;7.40;;;;;;;16.00;65.11;95585.28;6221826;23;20375;-80
2023/05/20 08:02:33;;;;;;;8.90;8.00;;;;;;;16.20;64.34;95579.50;6196438;23;20160;-79
2023/05/20 08:04:59;;;;;;;8.90;7.75;;;;;;;16.63;63.27;95580.44;6194694;23;20528;-79
2023/05/20 08:07:58;;;;;;;8.45;7.35;;;;;;;16.72;62.83;95579.34;6192465;23;20466;-82
2023/05/20 09:03:13;;;;;;;8.60;7.70;;;;;;;16.63;65.03;95581.25;6293355;22;20238;-84
2023/05/20 09:05:55;;;;;;;8.57;7.10;;;;;;;17.02;63.76;95577.44;6278589;22;20175;-84
2023/05/20 09:11:28;;;;;;;7.32;6.63;;;;;;;17.37;62.13;95588.88;6265605;22;20920;-84
2023/05/20 09:14:00;;;;;;;7.77;6.97;;;;;;;16.92;63.27;95577.75;6251611;22;20264;-83
2023/05/20 09:16:27;;;;;;;9.15;7.80;;;;;;;17.07;62.30;95575.09;6276401;22;20191;-82
2023/05/20 09:18:56;;;;;;;7.80;6.90;;;;;;;17.63;61.34;95580.41;6252487;22;20285;-81
2023/05/20 09:21:29;;;;;;;9.50;6.72;;;;;;;17.82;60.74;95582.41;6278558;22;20203;-82
2023/05/20 09:24:00;;;;;;;8.13;7.32;;;;;;;17.18;61.43;95582.47;6253126;22;20244;-84
2023/05/20 09:26:33;;;;;;;7.70;7.00;;;;;;;17.52;60.90;95583.56;6277743;22;20164;-83
2023/05/20 09:29:12;;;;;;;9.63;7.55;;;;;;;17.75;60.08;95575.47;6252439;22;20144;-83
2023/05/20 09:31:38;;;;;;;7.85;7.05;;;;;;;18.53;57.93;95555.91;6254406;22;20259;-83
2023/05/20 09:34:08;;;;;;;7.28;6.47;;;;;;;18.68;57.16;95574.19;6277603;22;20171;-85
2023/05/20 09:36:36;;;;;;;6.85;6.22;;;;;;;19.12;56.15;95565.00;6251068;22;20210;-84
2023/05/20 09:39:04;;;;;;;7.20;6.50;;;;;;;19.60;54.15;95570.13;6252274;22;20497;-84
2023/05/20 09:41:43;;;;;;;16.50;6.97;;;;;;;19.55;54.98;95567.28;6256255;22;20184;-82
2023/05/20 09:44:11;;;;;;;7.25;6.55;;;;;;;19.69;55.27;95559.19;6225309;22;20164;-81
2023/05/20 09:46:37;;;;;;;10.40;9.27;;;;;;;18.86;55.59;95560.50;6272426;22;20156;-81
2023/05/20 09:49:06;;;;;;;9.38;8.43;;;;;;;18.88;55.25;95558.47;6274878;22;20157;-82
2023/05/20 09:51:32;;;;;;;8.05;7.25;;;;;;;18.14;58.20;95551.28;6247289;22;20172;-84
2023/05/20 09:53:58;;;;;;;9.63;7.32;;;;;;;17.37;60.83;95546.06;6247056;22;20598;-83
2023/05/20 09:56:24;;;;;;;8.70;6.95;;;;;;;17.64;60.77;95553.16;6220369;22;20211;-82
2023/05/20 09:58:49;;;;;;;7.80;7.10;;;;;;;17.81;59.54;95545.81;6246304;22;20235;-81
2023/05/20 10:01:15;;;;;;;7.68;6.97;;;;;;;17.96;58.50;95549.16;6246035;22;20176;-81
2023/05/20 10:03:41;;;;;;;8.52;7.72;;;;;;;18.18;57.50;95551.69;6246973;22;20156;-82
2023/05/20 10:06:16;;;;;;;8.10;7.30;;;;;;;18.68;56.59;95548.72;6273016;22;20572;-82
2023/05/20 10:09:01;;;;;;;9.50;7.10;;;;;;;18.26;57.88;95552.34;6247555;22;20155;-82
2023/05/20 10:12:08;;;;;;;8.40;7.60;;;;;;;18.35;57.03;95551.19;6249379;22;20173;-84
2023/05/20 10:14:46;;;;;;;8.90;7.97;;;;;;;18.34;57.29;95546.13;6258155;22;20247;-83
2023/05/20 10:17:30;;;;;;;8.27;7.35;;;;;;;18.03;58.51;95541.31;6224025;22;20315;-84
2023/05/20 10:19:59;;;;;;;8.10;6.57;;;;;;;18.16;58.32;95544.00;6224412;22;20153;-83
2023/05/20 10:22:27;;;;;;;9.18;7.20;;;;;;;18.53;58.04;95537.50;6250257;22;20188;-81
2023/05/20 10:25:05;;;;;;;8.98;6.82;;;;;;;18.36;57.95;95539.66;6224839;22;20160;-83
2023/05/20 10:27:44;;;;;;;7.93;7.00;;;;;;;18.42;57.21;95543.31;6224743;22;20303;-84
2023/05/20 10:30:17;;;;;;;7.60;6.88;;;;;;;18.48;57.44;95541.75;6250742;22;20137;-80
2023/05/20 10:35:52;;;;;;;7.65;6.75;;;;;;;18.58;56.29;95526.41;6212216;23;20208;-82
2023/05/20 10:38:19;;;;;;;7.63;6.90;;;;;;;18.48;57.07;95536.47;6186951;23;20168;-83
2023/05/20 10:40:44;;;;;;;8.25;7.28;;;;;;;18.40;56.39;95535.63;6185608;23;20264;-83
2023/05/20 10:43:14;;;;;;;9.98;7.57;;;;;;;18.57;55.54;95528.22;6186393;23;20263;-82
2023/05/20 10:45:53;;;;;;;9.75;7.38;;;;;;;18.85;55.49;95525.50;6187024;23;20158;-84
2023/05/20 10:48:31;;;;;;;7.63;6.90;;;;;;;19.09;54.85;95518.84;6188918;23;20252;-83
2023/05/20 10:51:07;;;;;;;10.35;7.30;;;;;;;18.48;56.27;95520.69;6187650;23;20181;-82
2023/05/20 10:53:45;;;;;;;12.73;11.38;;;;;;;18.93;55.63;95517.41;6189555;23;20291;-82
2023/05/20 10:56:17;;;;;;;10.02;9.02;;;;;;;18.98;54.51;95518.63;6186490;23;20693;-85
2023/05/20 10:58:43;;;;;;;8.73;7.72;;;;;;;18.87;55.33;95526.09;6189976;23;20607;-79
2023/05/20 11:01:09;;;;;;;7.13;6.43;;;;;;;19.24;53.14;95513.38;6190981;23;20244;-78
2023/05/20 11:03:34;;;;;;;7.90;6.00;;;;;;;19.21;54.00;95513.78;6192332;23;20173;-80
2023/05/20 11:06:00;;;;;;;8.07;7.28;;;;;;;18.37;55.19;95520.22;6165686;23;20177;-78
2023/05/20 11:08:30;;;;;;;7.45;6.75;;;;;;;18.51;56.19;95512.41;6216628;23;20158;-79
2023/05/20 11:10:56;;;;;;;7.57;6.47;;;;;;;18.07;56.97;95527.59;6191822;23;20181;-79
2023/05/20 11:13:21;;;;;;;7.03;6.20;;;;;;;18.30;56.82;95511.53;6218766;22;20490;-79
2023/05/20 11:15:47;;;;;;;10.27;9.13;;;;;;;18.42;55.47;95508.34;6276294;22;20160;-80
2023/05/20 11:18:14;;;;;;;7.95;7.15;;;;;;;18.62;55.77;95517.09;6250534;22;20217;-79
2023/05/20 11:20:39;;;;;;;9.02;7.03;;;;;;;18.76;55.49;95504.81;6250331;22;20177;-78
2023/05/20 11:23:05;;;;;;;7.20;6.57;;;;;;;18.78;55.26;95500.97;6276752;22;20163;-83
2023/05/20 11:25:31;;;;;;;9.10;6.63;;;;;;;18.77;53.84;95496.72;6253839;22;20149;-80
2023/05/20 11:27:57;;;;;;;7.28;6.68;;;;;;;18.96;53.98;95492.50;6224227;22;20153;-80
2023/05/20 11:30:22;;;;;;;7.50;6.40;;;;;;;19.01;54.52;95489.28;6249365;22;20493;-79
2023/05/20 11:32:58;;;;;;;7.47;6.78;;;;;;;19.26;53.31;95490.31;6276786;22;20153;-83
2023/05/20 12:04:29;;;;;;;7.57;6.53;;;;;;;20.09;50.70;95474.78;6262060;22;20199;-81
2023/05/20 12:07:08;;;;;;;7.32;6.60;;;;;;;20.09;50.31;95477.44;6250862;22;20613;-81
2023/05/20 12:09:36;;;;;;;7.13;6.43;;;;;;;19.99;50.41;95485.78;6256143;22;20275;-82
2023/05/20 12:12:01;;;;;;;7.75;6.95;;;;;;;20.04;49.71;95478.03;6280498;22;20183;-81
2023/05/20 12:14:26;;;;;;;7.90;6.40;;;;;;;20.11;50.31;95471.94;6307977;22;20483;-81
2023/05/20 12:16:52;;;;;;;7.05;6.38;;;;;;;19.92;51.28;95473.63;6307166;22;20618;-82
2023/05/20 12:19:18;;;;;;;7.15;6.45;;;;;;;19.86;51.14;95471.81;6255946;22;20170;-82
2023/05/20 12:21:46;;;;;;;8.82;7.95;;;;;;;19.73;51.79;95475.28;6281866;22;20174;-79
2023/05/20 12:24:11;;;;;;;9.23;7.38;;;;;;;19.90;50.58;95473.03;6286492;22;20137;-80
2023/05/20 12:26:36;;;;;;;7.82;7.20;;;;;;;19.89;50.12;95463.50;6289313;22;20597;-80
2023/05/20 12:29:01;;;;;;;6.80;6.20;;;;;;;20.26;50.71;95461.94;6288296;22;20155;-80
2023/05/20 12:31:33;;;;;;;7.13;6.35;;;;;;;19.87;50.60;95463.69;6287981;22;20247;-85
2023/05/20 12:33:58;;;;;;;7.97;7.28;;;;;;;19.79;51.04;95463.94;6290063;22;20143;-78
2023/05/20 12:36:23;;;;;;;7.85;6.22;;;;;;;20.21;50.97;95472.31;6314763;22;20168;-79
2023/05/20 12:38:49;;;;;;;6.70;6.10;;;;;;;20.52;49.68;95476.88;6285637;22;20592;-83
2023/05/20 12:41:14;;;;;;;6.78;5.88;;;;;;;20.43;49.46;95460.47;6261249;22;20194;-83
2023/05/20 12:43:39;;;;;;;10.23;6.43;;;;;;;20.82;48.84;95466.53;6261500;22;20152;-83
2023/05/20 12:46:05;;;;;;;6.88;6.18;;;;;;;21.10;47.86;95466.94;6261260;22;20238;-84
2023/05/20 12:48:30;;;;;;;6.97;5.82;;;;;;;21.14;48.90;95464.69;6261851;22;20231;-84
2023/05/20 12:50:55;;;;;;;6.82;6.22;;;;;;;21.07;48.99;95462.09;6309769;22;20171;-82
2023/05/20 12:53:20;;;;;;;7.50;6.32;;;;;;;21.41;47.02;95452.91;6258155;22;20170;-82
2023/05/20 12:55:46;;;;;;;6.88;6.15;;;;;;;21.32;47.37;95453.41;6284532;22;20181;-83
2023/05/20 12:58:11;;;;;;;7.00;6.38;;;;;;;21.44;46.50;95444.53;6260457;22;20221;-85
2023/05/20 13:00:37;;;;;;;8.23;6.45;;;;;;;21.41;47.23;95449.47;6310285;22;20176;-84